sensor_id;sensor_type;location;lat;lon;timestamp;pressure;altitude;pressure_sealevel;temperature;humidity
74346;BME280;62776;50.518;6.732;2023-11-18T00:02:06;97295.06;;;5.58;100.00
74346;BME280;62776;50.518;6.732;2023-11-18T00:04:57;97300.16;;;5.55;100.00
74346;BME280;62776;50.518;6.732;2023-11-18T00:07:43;97288.25;;;5.60;100.00
74346;BME280;62776;50.518;6.732;2023-11-18T00:10:30;97293.28;;;5.56;100.00
74346;BME280;62776;50.518;6.732;2023-11-18T00:13:16;97290.75;;;5.57;100.00
74346;BME280;62776;50.518;6.732;2023-11-18T00:16:06;97288.13;;;5.54;100.00
74346;BME280;62776;50.518;6.732;2023-11-18T00:19:12;97290.34;;;5.39;100.00
74346;BME280;62776;50.518;6.732;2023-11-18T00:22:01;97295.88;;;5.56;100.00
74346;BME280;62776;50.518;6.732;2023-11-18T00:24:48;97293.34;;;5.59;100.00
74346;BME280;62776;50.518;6.732;2023-11-18T00:27:38;97298.59;;;5.62;100.00
74346;BME280;62776;50.518;6.732;2023-11-18T00:30:26;97303.81;;;5.65;100.00
74346;BME280;62776;50.518;6.732;2023-11-18T00:33:14;97286.66;;;5.67;100.00
74346;BME280;62776;50.518;6.732;2023-11-18T00:36:00;97281.56;;;5.70;100.00
74346;BME280;62776;50.518;6.732;2023-11-18T00:38:47;97274.72;;;5.72;100.00
74346;BME280;62776;50.518;6.732;2023-11-18T00:41:43;97276.19;;;5.59;100.00
74346;BME280;62776;50.518;6.732;2023-11-18T00:44:32;97269.47;;;5.67;100.00
74346;BME280;62776;50.518;6.732;2023-11-18T00:47:20;97273.91;;;5.74;100.00
74346;BME280;62776;50.518;6.732;2023-11-18T00:50:13;97266.22;;;5.76;100.00
74346;BME280;62776;50.518;6.732;2023-11-18T00:53:00;97271.38;;;5.76;100.00
74346;BME280;62776;50.518;6.732;2023-11-18T00:55:46;97275.72;;;5.78;100.00
74346;BME280;62776;50.518;6.732;2023-11-18T00:58:33;97274.88;;;5.79;100.00
74346;BME280;62776;50.518;6.732;2023-11-18T01:01:28;97273.13;;;5.78;100.00
74346;BME280;62776;50.518;6.732;2023-11-18T01:04:15;97278.31;;;5.80;100.00
74346;BME280;62776;50.518;6.732;2023-11-18T01:07:06;97275.59;;;5.72;100.00
74346;BME280;62776;50.518;6.732;2023-11-18T01:09:58;97266.69;;;5.58;100.00
74346;BME280;62776;50.518;6.732;2023-11-18T01:12:46;97257.13;;;5.53;100.00
74346;BME280;62776;50.518;6.732;2023-11-18T01:15:36;97258.69;;;5.45;100.00
74346;BME280;62776;50.518;6.732;2023-11-18T01:18:28;97267.13;;;5.38;100.00
74346;BME280;62776;50.518;6.732;2023-11-18T01:21:14;97271.22;;;5.28;100.00
74346;BME280;62776;50.518;6.732;2023-11-18T01:24:03;97277.97;;;5.21;100.00
74346;BME280;62776;50.518;6.732;2023-11-18T01:26:50;97280.41;;;5.15;100.00
74346;BME280;62776;50.518;6.732;2023-11-18T01:37:18;97282.75;;;5.06;100.00
74346;BME280;62776;50.518;6.732;2023-11-18T01:39:45;97280.13;;;5.03;100.00
74346;BME280;62776;50.518;6.732;2023-11-18T01:42:35;97286.88;;;4.98;100.00
74346;BME280;62776;50.518;6.732;2023-11-18T01:45:28;97295.44;;;4.97;100.00
74346;BME280;62776;50.518;6.732;2023-11-18T01:48:19;97296.22;;;4.93;100.00
74346;BME280;62776;50.518;6.732;2023-11-18T01:58:49;97302.00;;;4.83;100.00
74346;BME280;62776;50.518;6.732;2023-11-18T02:01:41;97295.00;;;4.79;100.00
74346;BME280;62776;50.518;6.732;2023-11-18T02:04:29;97292.50;;;4.81;100.00
74346;BME280;62776;50.518;6.732;2023-11-18T02:07:17;97295.00;;;4.79;100.00
74346;BME280;62776;50.518;6.732;2023-11-18T02:10:05;97296.75;;;4.80;100.00
74346;BME280;62776;50.518;6.732;2023-11-18T02:13:10;97297.34;;;4.70;100.00
74346;BME280;62776;50.518;6.732;2023-11-18T02:15:59;97295.00;;;4.79;100.00
74346;BME280;62776;50.518;6.732;2023-11-18T02:18:49;97301.06;;;4.81;100.00
74346;BME280;62776;50.518;6.732;2023-11-18T02:21:38;97291.69;;;4.83;100.00
74346;BME280;62776;50.518;6.732;2023-11-18T02:24:33;97289.69;;;4.73;100.00
74346;BME280;62776;50.518;6.732;2023-11-18T02:27:26;97293.34;;;4.81;100.00
74346;BME280;62776;50.518;6.732;2023-11-18T02:30:14;97291.59;;;4.80;100.00
74346;BME280;62776;50.518;6.732;2023-11-18T02:33:10;97290.69;;;4.78;100.00
74346;BME280;62776;50.518;6.732;2023-11-18T02:36:06;97295.84;;;4.78;100.00
74346;BME280;62776;50.518;6.732;2023-11-18T02:39:00;97299.41;;;4.83;100.00
74346;BME280;62776;50.518;6.732;2023-11-18T02:41:51;97294.34;;;4.88;100.00
74346;BME280;62776;50.518;6.732;2023-11-18T02:44:38;97296.06;;;4.87;100.00
74346;BME280;62776;50.518;6.732;2023-11-18T02:47:31;97299.41;;;4.83;100.00
74346;BME280;62776;50.518;6.732;2023-11-18T02:50:21;97294.34;;;4.88;100.00
74346;BME280;62776;50.518;6.732;2023-11-18T02:53:11;97283.19;;;4.87;100.00
74346;BME280;62776;50.518;6.732;2023-11-18T02:56:01;97289.28;;;4.91;100.00
74346;BME280;62776;50.518;6.732;2023-11-18T02:58:55;97295.16;;;4.85;100.00
74346;BME280;62776;50.518;6.732;2023-11-18T03:01:42;97275.53;;;4.92;100.00
74346;BME280;62776;50.518;6.732;2023-11-18T03:04:29;97278.09;;;4.90;100.00
74346;BME280;62776;50.518;6.732;2023-11-18T03:07:17;97277.28;;;4.93;100.00
74346;BME280;62776;50.518;6.732;2023-11-18T03:10:04;97277.28;;;4.93;100.00
74346;BME280;62776;50.518;6.732;2023-11-18T03:12:56;97296.28;;;4.62;100.00
74346;BME280;62776;50.518;6.732;2023-11-18T03:15:43;97282.38;;;4.90;100.00
74346;BME280;62776;50.518;6.732;2023-11-18T03:18:30;97280.78;;;4.95;100.00
74346;BME280;62776;50.518;6.732;2023-11-18T03:21:17;97279.13;;;4.97;100.00
74346;BME280;62776;50.518;6.732;2023-11-18T03:24:16;97278.03;;;4.87;100.00
74346;BME280;62776;50.518;6.732;2023-11-18T03:27:03;97275.66;;;4.96;100.00
74346;BME280;62776;50.518;6.732;2023-11-18T03:29:50;97273.91;;;4.95;100.00
74346;BME280;62776;50.518;6.732;2023-11-18T03:32:37;97273.03;;;4.93;100.00
74346;BME280;62776;50.518;6.732;2023-11-18T03:35:27;97265.28;;;4.93;100.00
74346;BME280;62776;50.518;6.732;2023-11-18T03:38:14;97272.06;;;4.90;100.00
74346;BME280;62776;50.518;6.732;2023-11-18T03:41:00;97266.00;;;4.86;100.00
74346;BME280;62776;50.518;6.732;2023-11-18T03:43:47;97262.50;;;4.84;100.00
74346;BME280;62776;50.518;6.732;2023-11-18T03:46:43;97257.19;;;4.78;100.00
74346;BME280;62776;50.518;6.732;2023-11-18T03:49:30;97246.78;;;4.72;100.00
74346;BME280;62776;50.518;6.732;2023-11-18T03:52:19;97245.78;;;4.67;100.00
74346;BME280;62776;50.518;6.732;2023-11-18T03:55:06;97255.19;;;4.65;100.00
74346;BME280;62776;50.518;6.732;2023-11-18T03:58:01;97246.63;;;4.66;100.00
74346;BME280;62776;50.518;6.732;2023-11-18T04:00:51;97260.25;;;4.62;100.00
74346;BME280;62776;50.518;6.732;2023-11-18T04:03:38;97264.59;;;4.63;100.00
74346;BME280;62776;50.518;6.732;2023-11-18T04:06:27;97273.94;;;4.59;100.00
74346;BME280;62776;50.518;6.732;2023-11-18T04:09:19;97270.59;;;4.63;100.00
74346;BME280;62776;50.518;6.732;2023-11-18T04:12:11;97273.19;;;4.63;100.00
74346;BME280;62776;50.518;6.732;2023-11-18T04:14:58;97279.22;;;4.65;100.00
74346;BME280;62776;50.518;6.732;2023-11-18T04:17:57;97260.19;;;4.59;100.00
74346;BME280;62776;50.518;6.732;2023-11-18T04:20:46;97263.81;;;4.67;100.00
74346;BME280;62776;50.518;6.732;2023-11-18T04:23:40;97275.69;;;4.62;100.00
74346;BME280;62776;50.518;6.732;2023-11-18T04:26:30;97264.59;;;4.63;100.00
74346;BME280;62776;50.518;6.732;2023-11-18T04:29:28;97259.34;;;4.60;100.00
74346;BME280;62776;50.518;6.732;2023-11-18T04:32:15;97258.53;;;4.61;100.00
74346;BME280;62776;50.518;6.732;2023-11-18T04:35:04;97253.34;;;4.59;100.00
74346;BME280;62776;50.518;6.732;2023-11-18T04:37:56;97236.13;;;4.57;100.00
74346;BME280;62776;50.518;6.732;2023-11-18T04:40:45;97235.13;;;4.52;100.00
74346;BME280;62776;50.518;6.732;2023-11-18T04:43:39;97226.72;;;4.59;100.00
74346;BME280;62776;50.518;6.732;2023-11-18T04:46:28;97224.22;;;4.62;100.00
74346;BME280;62776;50.518;6.732;2023-11-18T04:49:15;97228.44;;;4.58;100.00
74346;BME280;62776;50.518;6.732;2023-11-18T04:52:07;97233.50;;;4.55;100.00
74346;BME280;62776;50.518;6.732;2023-11-18T04:54:56;97225.97;;;4.63;100.00
74346;BME280;62776;50.518;6.732;2023-11-18T04:57:45;97225.00;;;4.59;100.00
74346;BME280;62776;50.518;6.732;2023-11-18T05:00:35;97224.28;;;4.65;100.00
74346;BME280;62776;50.518;6.732;2023-11-18T05:03:27;97228.47;;;4.60;100.00
74346;BME280;62776;50.518;6.732;2023-11-18T05:06:13;97213.19;;;4.67;100.00
74346;BME280;62776;50.518;6.732;2023-11-18T05:09:03;97193.47;;;4.68;100.00
74346;BME280;62776;50.518;6.732;2023-11-18T05:11:59;97199.34;;;4.62;100.00
74346;BME280;62776;50.518;6.732;2023-11-18T05:14:46;97191.72;;;4.67;100.00
74346;BME280;62776;50.518;6.732;2023-11-18T05:17:36;97183.97;;;4.65;100.00
74346;BME280;62776;50.518;6.732;2023-11-18T05:20:27;97185.59;;;4.62;100.00
74346;BME280;62776;50.518;6.732;2023-11-18T05:23:14;97182.28;;;4.67;100.00
74346;BME280;62776;50.518;6.732;2023-11-18T05:26:00;97181.47;;;4.70;100.00
74346;BME280;62776;50.518;6.732;2023-11-18T05:28:50;97185.81;;;4.72;100.00
74346;BME280;62776;50.518;6.732;2023-11-18T05:31:42;97189.25;;;4.71;100.00
74346;BME280;62776;50.518;6.732;2023-11-18T05:34:41;97182.22;;;4.64;100.00
74346;BME280;62776;50.518;6.732;2023-11-18T05:37:30;97178.19;;;4.75;100.00
74346;BME280;62776;50.518;6.732;2023-11-18T05:40:21;97185.91;;;4.75;100.00
74346;BME280;62776;50.518;6.732;2023-11-18T05:43:10;97186.84;;;4.79;100.00
74346;BME280;62776;50.518;6.732;2023-11-18T05:46:06;97168.75;;;4.76;100.00
74346;BME280;62776;50.518;6.732;2023-11-18T05:49:11;97163.59;;;4.76;100.00
74346;BME280;62776;50.518;6.732;2023-11-18T05:51:59;97145.72;;;4.82;100.00
74346;BME280;62776;50.518;6.732;2023-11-18T05:54:49;97148.31;;;4.84;100.00
74346;BME280;62776;50.518;6.732;2023-11-18T05:57:35;97144.03;;;4.84;100.00
74346;BME280;62776;50.518;6.732;2023-11-18T06:00:22;97142.38;;;4.86;100.00
74346;BME280;62776;50.518;6.732;2023-11-18T06:03:13;97139.81;;;4.86;100.00
74346;BME280;62776;50.518;6.732;2023-11-18T06:06:00;97138.13;;;4.88;100.00
74346;BME280;62776;50.518;6.732;2023-11-18T06:08:46;97136.34;;;4.86;100.00
74346;BME280;62776;50.518;6.732;2023-11-18T06:11:33;97147.53;;;4.88;100.00
74346;BME280;62776;50.518;6.732;2023-11-18T06:14:21;97157.03;;;4.89;100.00
74346;BME280;62776;50.518;6.732;2023-11-18T06:17:30;97159.41;;;4.80;100.00
74346;BME280;62776;50.518;6.732;2023-11-18T06:20:16;97152.78;;;4.92;100.00
74346;BME280;62776;50.518;6.732;2023-11-18T06:23:03;97146.88;;;4.96;100.00
74346;BME280;62776;50.518;6.732;2023-11-18T06:25:49;97153.78;;;4.99;100.00
74346;BME280;62776;50.518;6.732;2023-11-18T06:28:38;97156.38;;;5.00;100.00
74346;BME280;62776;50.518;6.732;2023-11-18T06:31:27;97151.31;;;5.03;100.00
74346;BME280;62776;50.518;6.732;2023-11-18T06:34:15;97148.78;;;5.05;100.00
74346;BME280;62776;50.518;6.732;2023-11-18T06:37:02;97147.97;;;5.07;100.00
74346;BME280;62776;50.518;6.732;2023-11-18T06:39:56;97144.50;;;5.07;100.00
74346;BME280;62776;50.518;6.732;2023-11-18T06:42:43;97136.91;;;5.13;100.00
74346;BME280;62776;50.518;6.732;2023-11-18T06:45:35;97141.19;;;5.14;100.00
74346;BME280;62776;50.518;6.732;2023-11-18T06:48:26;97132.63;;;5.13;100.00
74346;BME280;62776;50.518;6.732;2023-11-18T06:51:17;97145.69;;;5.22;100.00
74346;BME280;62776;50.518;6.732;2023-11-18T06:54:07;97157.59;;;5.17;100.00
74346;BME280;62776;50.518;6.732;2023-11-18T06:56:59;97162.81;;;5.20;100.00
74346;BME280;62776;50.518;6.732;2023-11-18T06:59:50;97167.25;;;5.27;100.00
74346;BME280;62776;50.518;6.732;2023-11-18T07:02:37;97157.06;;;5.33;100.00
74346;BME280;62776;50.518;6.732;2023-11-18T07:05:27;97154.44;;;5.30;100.00
74346;BME280;62776;50.518;6.732;2023-11-18T07:08:13;97157.19;;;5.40;100.00
74346;BME280;62776;50.518;6.732;2023-11-18T07:10:59;97159.84;;;5.43;100.00
74346;BME280;62776;50.518;6.732;2023-11-18T07:13:48;97165.03;;;5.46;100.00
74346;BME280;62776;50.518;6.732;2023-11-18T07:16:35;97158.25;;;5.51;100.00
74346;BME280;62776;50.518;6.732;2023-11-18T07:19:21;97170.28;;;5.50;100.00
74346;BME280;62776;50.518;6.732;2023-11-18T07:22:08;97159.97;;;5.50;100.00
74346;BME280;62776;50.518;6.732;2023-11-18T07:24:56;97162.53;;;5.49;100.00
74346;BME280;62776;50.518;6.732;2023-11-18T07:27:45;97167.75;;;5.52;100.00
74346;BME280;62776;50.518;6.732;2023-11-18T07:30:35;97160.81;;;5.49;100.00
74346;BME280;62776;50.518;6.732;2023-11-18T07:33:26;97163.41;;;5.49;100.00
74346;BME280;62776;50.518;6.732;2023-11-18T07:36:12;97154.91;;;5.55;100.00
74346;BME280;62776;50.518;6.732;2023-11-18T07:38:59;97164.31;;;5.53;100.00
74346;BME280;62776;50.518;6.732;2023-11-18T07:45:19;97152.16;;;5.46;100.00
74346;BME280;62776;50.518;6.732;2023-11-18T07:48:53;97150.41;;;5.43;100.00
74346;BME280;62776;50.518;6.732;2023-11-18T07:51:58;97148.94;;;5.57;100.00
74346;BME280;62776;50.518;6.732;2023-11-18T07:54:45;97132.72;;;5.63;100.00
74346;BME280;62776;50.518;6.732;2023-11-18T07:57:31;97130.19;;;5.66;100.00
74346;BME280;62776;50.518;6.732;2023-11-18T08:00:22;97131.97;;;5.70;100.00
74346;BME280;62776;50.518;6.732;2023-11-18T08:03:13;97131.16;;;5.72;100.00
74346;BME280;62776;50.518;6.732;2023-11-18T08:06:00;97134.69;;;5.77;100.00
74346;BME280;62776;50.518;6.732;2023-11-18T08:08:48;97128.63;;;5.77;100.00
74346;BME280;62776;50.518;6.732;2023-11-18T08:11:34;97129.50;;;5.77;100.00
74346;BME280;62776;50.518;6.732;2023-11-18T08:14:21;97132.13;;;5.79;100.00
74346;BME280;62776;50.518;6.732;2023-11-18T08:17:08;97141.75;;;5.86;100.00
74346;BME280;62776;50.518;6.732;2023-11-18T08:19:56;97136.63;;;5.87;100.00
74346;BME280;62776;50.518;6.732;2023-11-18T08:22:44;97142.69;;;5.91;100.00
74346;BME280;62776;50.518;6.732;2023-11-18T08:25:30;97144.50;;;5.95;100.00
74346;BME280;62776;50.518;6.732;2023-11-18T08:28:19;97138.50;;;5.98;100.00
74346;BME280;62776;50.518;6.732;2023-11-18T08:31:08;97128.19;;;5.98;100.00
74346;BME280;62776;50.518;6.732;2023-11-18T08:33:58;97133.28;;;5.93;100.00
74346;BME280;62776;50.518;6.732;2023-11-18T08:36:44;97143.66;;;5.98;100.00
74346;BME280;62776;50.518;6.732;2023-11-18T08:39:31;97135.06;;;5.97;100.00
74346;BME280;62776;50.518;6.732;2023-11-18T08:42:18;97137.69;;;6.02;100.00
74346;BME280;62776;50.518;6.732;2023-11-18T08:45:27;97142.59;;;5.85;100.00
74346;BME280;62776;50.518;6.732;2023-11-18T08:51:38;97144.59;;;6.01;100.00
74346;BME280;62776;50.518;6.732;2023-11-18T08:54:27;97140.28;;;6.00;100.00
74346;BME280;62776;50.518;6.732;2023-11-18T08:57:27;97125.56;;;5.96;100.00
74346;BME280;62776;50.518;6.732;2023-11-18T09:00:34;97130.00;;;6.05;100.00
74346;BME280;62776;50.518;6.732;2023-11-18T09:03:34;97121.38;;;6.01;100.00
74346;BME280;62776;50.518;6.732;2023-11-18T09:06:22;97123.16;;;6.05;100.00
74346;BME280;62776;50.518;6.732;2023-11-18T09:09:14;97129.19;;;6.07;100.00
74346;BME280;62776;50.518;6.732;2023-11-18T09:12:01;97131.00;;;6.11;100.00
74346;BME280;62776;50.518;6.732;2023-11-18T09:14:48;97130.16;;;6.12;100.00
74346;BME280;62776;50.518;6.732;2023-11-18T09:17:37;97123.34;;;6.19;100.00
74346;BME280;62776;50.518;6.732;2023-11-18T09:20:24;97127.75;;;6.24;100.00
74346;BME280;62776;50.518;6.732;2023-11-18T09:23:13;97122.63;;;6.27;100.00
74346;BME280;62776;50.518;6.732;2023-11-18T09:26:02;97117.47;;;6.27;100.00
74346;BME280;62776;50.518;6.732;2023-11-18T09:28:56;97115.88;;;6.35;100.00
74346;BME280;62776;50.518;6.732;2023-11-18T09:31:46;97116.81;;;6.40;100.00
74346;BME280;62776;50.518;6.732;2023-11-18T09:34:36;97115.97;;;6.41;100.00
74346;BME280;62776;50.518;6.732;2023-11-18T09:37:28;97113.38;;;6.40;100.00
74346;BME280;62776;50.518;6.732;2023-11-18T09:40:14;97118.66;;;6.47;100.00
74346;BME280;62776;50.518;6.732;2023-11-18T09:43:08;97116.03;;;6.44;100.00
74346;BME280;62776;50.518;6.732;2023-11-18T09:45:57;97118.63;;;6.46;100.00
74346;BME280;62776;50.518;6.732;2023-11-18T09:48:53;97117.81;;;6.51;100.00
74346;BME280;62776;50.518;6.732;2023-11-18T09:51:46;97109.25;;;6.52;100.00
74346;BME280;62776;50.518;6.732;2023-11-18T09:57:40;97115.09;;;6.39;100.00
74346;BME280;62776;50.518;6.732;2023-11-18T10:00:32;97113.34;;;6.37;100.00
74346;BME280;62776;50.518;6.732;2023-11-18T10:03:19;97096.16;;;6.39;100.00
74346;BME280;62776;50.518;6.732;2023-11-18T10:06:09;97096.09;;;6.37;100.00
74346;BME280;62776;50.518;6.732;2023-11-18T10:08:57;97099.56;;;6.38;100.00
74346;BME280;62776;50.518;6.732;2023-11-18T10:12:00;97090.16;;;6.41;100.00
74346;BME280;62776;50.518;6.732;2023-11-18T10:14:51;97088.50;;;6.45;100.00
74346;BME280;62776;50.518;6.732;2023-11-18T10:17:45;97090.19;;;6.44;100.00
74346;BME280;62776;50.518;6.732;2023-11-18T10:20:52;97093.66;;;6.46;100.00
74346;BME280;62776;50.518;6.732;2023-11-18T10:24:00;97084.94;;;6.38;100.00
74346;BME280;62776;50.518;6.732;2023-11-18T10:26:55;97079.81;;;6.40;100.00
74346;BME280;62776;50.518;6.732;2023-11-18T10:29:44;97079.91;;;6.47;100.00
74346;BME280;62776;50.518;6.732;2023-11-18T10:32:31;97079.97;;;6.50;100.00
74346;BME280;62776;50.518;6.732;2023-11-18T10:35:21;97070.47;;;6.49;100.00
74346;BME280;62776;50.518;6.732;2023-11-18T10:38:08;97064.47;;;6.50;100.00
74346;BME280;62776;50.518;6.732;2023-11-18T10:40:59;97067.84;;;6.45;100.00
74346;BME280;62776;50.518;6.732;2023-11-18T10:43:48;97065.28;;;6.48;100.00
74346;BME280;62776;50.518;6.732;2023-11-18T10:46:35;97055.91;;;6.53;100.00
74346;BME280;62776;50.518;6.732;2023-11-18T10:49:22;97047.28;;;6.52;100.00
74346;BME280;62776;50.518;6.732;2023-11-18T10:52:08;97041.22;;;6.52;100.00
74346;BME280;62776;50.518;6.732;2023-11-18T10:54:59;97030.03;;;6.50;100.00
74346;BME280;62776;50.518;6.732;2023-11-18T10:57:54;97030.91;;;6.52;100.00
74346;BME280;62776;50.518;6.732;2023-11-18T11:00:49;97028.28;;;6.47;100.00
74346;BME280;62776;50.518;6.732;2023-11-18T11:03:35;97025.78;;;6.55;100.00
74346;BME280;62776;50.518;6.732;2023-11-18T11:06:42;97044.66;;;6.49;100.00
74346;BME280;62776;50.518;6.732;2023-11-18T11:09:29;97036.09;;;6.55;100.00
74346;BME280;62776;50.518;6.732;2023-11-18T11:12:33;97017.94;;;6.47;100.00
74346;BME280;62776;50.518;6.732;2023-11-18T11:15:32;97020.50;;;6.46;100.00
74346;BME280;62776;50.518;6.732;2023-11-18T11:18:21;97018.00;;;6.50;100.00
74346;BME280;62776;50.518;6.732;2023-11-18T11:21:15;97002.53;;;6.53;100.00
74346;BME280;62776;50.518;6.732;2023-11-18T11:24:17;96989.53;;;6.47;100.00
74346;BME280;62776;50.518;6.732;2023-11-18T11:27:33;96985.16;;;6.42;100.00
74346;BME280;62776;50.518;6.732;2023-11-18T11:30:37;96986.97;;;6.47;100.00
74346;BME280;62776;50.518;6.732;2023-11-18T11:33:43;96965.38;;;6.44;100.00
74346;BME280;62776;50.518;6.732;2023-11-18T11:36:40;96970.59;;;6.47;100.00
74346;BME280;62776;50.518;6.732;2023-11-18T11:39:28;96962.00;;;6.48;100.00
74346;BME280;62776;50.518;6.732;2023-11-18T11:42:18;96960.25;;;6.47;100.00
74346;BME280;62776;50.518;6.732;2023-11-18T11:45:07;96943.94;;;6.49;100.00
74346;BME280;62776;50.518;6.732;2023-11-18T11:48:07;96927.53;;;6.44;100.00
74346;BME280;62776;50.518;6.732;2023-11-18T11:54:20;96931.63;;;6.27;100.00
74346;BME280;62776;50.518;6.732;2023-11-18T11:57:13;96917.97;;;6.34;100.00
74346;BME280;62776;50.518;6.732;2023-11-18T12:00:23;96903.28;;;6.32;100.00
74346;BME280;62776;50.518;6.732;2023-11-18T12:03:21;96895.63;;;6.39;100.00
74346;BME280;62776;50.518;6.732;2023-11-18T12:06:30;96892.19;;;6.40;100.00
74346;BME280;62776;50.518;6.732;2023-11-18T12:09:31;96881.03;;;6.40;100.00
74346;BME280;62776;50.518;6.732;2023-11-18T12:12:40;96868.09;;;6.41;100.00
74346;BME280;62776;50.518;6.732;2023-11-18T12:15:47;96862.91;;;6.38;100.00
74346;BME280;62776;50.518;6.732;2023-11-18T12:18:37;96849.31;;;6.54;100.00
74346;BME280;62776;50.518;6.732;2023-11-18T12:21:55;96843.16;;;6.42;100.00
74346;BME280;62776;50.518;6.732;2023-11-18T12:28:10;96809.63;;;6.46;100.00
74346;BME280;62776;50.518;6.732;2023-11-18T12:31:01;96799.34;;;6.49;100.00
74346;BME280;62776;50.518;6.732;2023-11-18T12:34:03;96797.63;;;6.51;100.00
74346;BME280;62776;50.518;6.732;2023-11-18T12:44:14;96765.59;;;6.30;100.00
74346;BME280;62776;50.518;6.732;2023-11-18T12:47:15;96755.38;;;6.42;100.00
74346;BME280;62776;50.518;6.732;2023-11-18T12:50:11;96751.94;;;6.43;100.00
74346;BME280;62776;50.518;6.732;2023-11-18T12:53:30;96764.00;;;6.42;100.00
74346;BME280;62776;50.518;6.732;2023-11-18T12:56:29;96771.84;;;6.54;100.00
74346;BME280;62776;50.518;6.732;2023-11-18T12:59:27;96787.31;;;6.54;100.00
74346;BME280;62776;50.518;6.732;2023-11-18T13:02:40;96783.03;;;6.55;100.00
74346;BME280;62776;50.518;6.732;2023-11-18T13:05:46;96782.19;;;6.56;100.00
74346;BME280;62776;50.518;6.732;2023-11-18T13:09:14;96762.25;;;6.43;100.00
74346;BME280;62776;50.518;6.732;2023-11-18T13:12:13;96753.75;;;6.54;100.00
74346;BME280;62776;50.518;6.732;2023-11-18T13:15:17;96751.13;;;6.45;100.00
74346;BME280;62776;50.518;6.732;2023-11-18T13:18:27;96752.75;;;6.36;100.00
74346;BME280;62776;50.518;6.732;2023-11-18T13:21:19;96741.63;;;6.44;100.00
74346;BME280;62776;50.518;6.732;2023-11-18T13:24:11;96716.34;;;6.09;100.00
74346;BME280;62776;50.518;6.732;2023-11-18T13:26:59;96720.00;;;6.29;100.00
74346;BME280;62776;50.518;6.732;2023-11-18T13:29:49;96697.56;;;6.23;100.00
74346;BME280;62776;50.518;6.732;2023-11-18T13:32:51;96692.34;;;6.17;100.00
74346;BME280;62776;50.518;6.732;2023-11-18T13:35:43;96682.88;;;6.16;100.00
74346;BME280;62776;50.518;6.732;2023-11-18T13:38:33;96684.59;;;6.14;100.00
74346;BME280;62776;50.518;6.732;2023-11-18T13:41:35;96686.22;;;6.06;100.00
74346;BME280;62776;50.518;6.732;2023-11-18T13:44:38;96668.16;;;6.08;100.00
74346;BME280;62776;50.518;6.732;2023-11-18T13:47:26;96650.97;;;6.08;100.00
74346;BME280;62776;50.518;6.732;2023-11-18T13:50:16;96638.94;;;6.09;100.00
74346;BME280;62776;50.518;6.732;2023-11-18T13:53:10;96628.59;;;6.06;100.00
74346;BME280;62776;50.518;6.732;2023-11-18T13:56:18;96619.94;;;5.99;100.00
74346;BME280;62776;50.518;6.732;2023-11-18T14:02:32;96622.50;;;5.99;100.00
74346;BME280;62776;50.518;6.732;2023-11-18T14:05:45;96628.53;;;6.00;100.00
74346;BME280;62776;50.518;6.732;2023-11-18T14:08:56;96637.19;;;6.05;100.00
74346;BME280;62776;50.518;6.732;2023-11-18T14:11:43;96614.00;;;6.11;100.00
74346;BME280;62776;50.518;6.732;2023-11-18T14:14:31;96602.81;;;6.10;100.00
74346;BME280;62776;50.518;6.732;2023-11-18T14:17:25;96613.13;;;6.07;100.00
74346;BME280;62776;50.518;6.732;2023-11-18T14:20:23;96589.03;;;6.05;100.00
74346;BME280;62776;50.518;6.732;2023-11-18T14:23:39;96589.06;;;6.08;100.00
74346;BME280;62776;50.518;6.732;2023-11-18T14:26:28;96590.84;;;6.15;100.00
74346;BME280;62776;50.518;6.732;2023-11-18T14:29:23;96584.81;;;6.15;100.00
74346;BME280;62776;50.518;6.732;2023-11-18T14:32:31;96589.09;;;6.14;100.00
74346;BME280;62776;50.518;6.732;2023-11-18T14:35:37;96582.16;;;6.07;100.00
74346;BME280;62776;50.518;6.732;2023-11-18T14:38:30;96577.03;;;6.13;100.00
74346;BME280;62776;50.518;6.732;2023-11-18T14:41:20;96574.50;;;6.15;100.00
74346;BME280;62776;50.518;6.732;2023-11-18T14:44:29;96561.59;;;6.16;100.00
74346;BME280;62776;50.518;6.732;2023-11-18T14:47:18;96529.81;;;6.26;100.00
74346;BME280;62776;50.518;6.732;2023-11-18T14:50:12;96500.59;;;6.26;100.00
74346;BME280;62776;50.518;6.732;2023-11-18T14:53:03;96538.44;;;6.25;100.00
74346;BME280;62776;50.518;6.732;2023-11-18T14:55:59;96528.09;;;6.22;100.00
74346;BME280;62776;50.518;6.732;2023-11-18T14:59:12;96545.25;;;6.14;100.00
74346;BME280;62776;50.518;6.732;2023-11-18T15:05:35;96505.69;;;6.20;100.00
74346;BME280;62776;50.518;6.732;2023-11-18T15:12:28;96498.84;;;6.26;100.00
74346;BME280;62776;50.518;6.732;2023-11-18T15:15:31;96498.81;;;6.22;100.00
74346;BME280;62776;50.518;6.732;2023-11-18T15:18:42;96480.75;;;6.17;100.00
74346;BME280;62776;50.518;6.732;2023-11-18T15:26:17;96489.34;;;6.19;100.00
74346;BME280;62776;50.518;6.732;2023-11-18T15:29:43;96461.81;;;6.21;100.00
74346;BME280;62776;50.518;6.732;2023-11-18T15:32:46;96461.03;;;6.33;100.00
74346;BME280;62776;50.518;6.732;2023-11-18T15:55:21;96400.78;;;6.25;100.00
74346;BME280;62776;50.518;6.732;2023-11-18T15:58:44;96395.63;;;6.28;100.00
74346;BME280;62776;50.518;6.732;2023-11-18T16:01:33;96371.59;;;6.39;100.00
74346;BME280;62776;50.518;6.732;2023-11-18T16:04:20;96371.59;;;6.42;100.00
74346;BME280;62776;50.518;6.732;2023-11-18T16:07:08;96346.63;;;6.46;100.00
74346;BME280;62776;50.518;6.732;2023-11-18T16:10:05;96356.06;;;6.38;100.00
74346;BME280;62776;50.518;6.732;2023-11-18T16:14:19;96363.81;;;6.29;100.00
74346;BME280;62776;50.518;6.732;2023-11-18T16:16:59;96351.78;;;6.44;100.00
74346;BME280;62776;50.518;6.732;2023-11-18T16:19:51;96373.34;;;6.48;100.00
74346;BME280;62776;50.518;6.732;2023-11-18T16:22:42;96363.00;;;6.49;100.00
74346;BME280;62776;50.518;6.732;2023-11-18T16:25:29;96362.16;;;6.53;100.00
74346;BME280;62776;50.518;6.732;2023-11-18T16:28:16;96360.44;;;6.56;100.00
74346;BME280;62776;50.518;6.732;2023-11-18T16:31:24;96375.91;;;6.49;100.00